Roes Welcome - northern half: Past 24 Hour Conditions

 

Nain Airport

09:00 PM ADT 22 March 2017
Disclaimer

This table is a summary of hourly weather conditions for the past 24 hours.
Please note that these observations might not always be representative of weather conditions over their associated marine area.

Date / Time
(ADT)
Wind(knots) Conditions Visibility(km) Pressure(kPa) Air tempC) Relative humidity(%) Dew pointC) Wind Chill
22 March 2017
21:00 W 26 gust 31 N/A N/A 100.9 -17 60 -23 -31
20:00 WNW 22 gust 29 Mostly Cloudy 24 100.8 -17 61 -23 -30
19:00 W 20 gust 32 Mostly Cloudy 24 100.6 -17 61 -23 -30
18:00 W 27 gust 32 Mostly Cloudy 24 100.6 -17 61 -23 -32
17:00 WNW 30 Mostly Cloudy 24 100.5 -18 61 -23 -33
16:00 W 27 gust 33 Partly Cloudy 24 100.4 -18 61 -24 -33
15:00 W 28 gust 36 Sunny 24 100.3 -18 59 -25 -33
14:00 WNW 24 gust 35 Sunny 24 100.4 -19 58 -25 -33
13:00 W 24 gust 33 Sunny 24 100.3 -19 57 -26 -33
12:00 W 26 Sunny 24 100.3 -19 53 -27 -34
11:00 W 19 gust 26 Sunny 24 100.3 -20 53 -27 -33
10:00 WNW 22 Sunny 24 100.2 -20 57 -27 -34
9:00 W 22 gust 29 Sunny 24 100.2 -21 56 -27 -35
8:00 WNW 26 gust 31 Sunny 24 100.2 -21 58 -27 -36
7:00 WNW 23 gust 32 Clear 24 100.2 -21 58 -27 -36
6:00 WNW 19 gust 32 Clear 24 100.2 -20 57 -27 -34
5:00 W 18 gust 28 Clear 24 100.2 -20 57 -26 -33
4:00 WNW 24 gust 32 N/A N/A 100.2 -19 55 -26 -33
3:00 WNW 29 gust 37 N/A N/A 100.2 -18 55 -25 -33
2:00 WNW 29 gust 34 N/A N/A 100.3 -18 55 -24 -33
1:00 WNW 29 gust 34 N/A N/A 100.3 -17 55 -24 -32
0:00 WNW 22 gust 28 N/A N/A 100.4 -17 57 -23 -30
21 March 2017
23:00 WNW 25 gust 31 N/A N/A 100.5 -16 56 -23 -29
22:00 NW 19 gust 24 N/A N/A 100.6 -15 56 -22 -27
21:00 WNW 17 N/A N/A 100.6 -14 56 -21 -25

Zoom-in to make a selection

Map of Arctic - Eastern Arctic marine weather areas Baker Lake Airport Chesterfield Inlet Airport Coral Harbour Airport Gjoa Haven Airport Kugaaruk Airport Rankin Inlet Airport Shepherd Bay Airport Whale Cove Airport Arctic Bay Brevoort Island Qikiqtarjuaq Airport Cape Dorset Airport Cape Dyer Cape Hooper Clyde River Airport Grise Fiord Airport Hall Beach Airport Igloolik Airport Iqaluit Airport Longstaff Bluff Pangnirtung Airport Pond Inlet Airport Naujaat Resolute Airport Resolution Island Rowley Island Airport Taloyoak Airport Wager Bay Akulivik Airport Ivujivik Airport Puvirnituq Airport Kangiqsujuaq Airport Kangirsuk Airport Quaqtaq Airport Tasiujaq Airport Cape Kakkiviak Cape Kiglapait Nain Airport Saglek Cape Mercy Kimmirut Airport Aupaluk Airport Salluit Airport Kangiqsualujjuaq Airport Cape Liverpool Fort Ross
Legend:
buoy Buoy
land station Land Station

Arctic - Eastern Arctic Area

Another Region

What we are doing

Date modified: